Time,TemperatureF,DewpointF,PressureIn,WindDirection,WindDirectionDegrees,WindSpeedMPH,WindSpeedGustMPH,Humidity,HourlyPrecipIn,Conditions,Clouds,dailyrainin,SoftwareType,DateUTC
2013-05-09 00:02:00,30.2,28.7,30.12,North,355,0.0,0.0,94,0.00,,---,0.00,VWS V14.01,2013-05-09 06:02:00,
2013-05-09 00:07:00,30.2,28.7,30.12,North,355,0.0,0.0,94,0.00,,---,0.00,VWS V14.01,2013-05-09 06:07:00,
2013-05-09 00:12:00,30.2,28.7,30.11,North,355,0.0,0.0,94,0.00,,---,0.00,VWS V14.01,2013-05-09 06:12:00,
2013-05-09 00:17:00,30.2,28.7,30.11,North,355,0.0,0.0,94,0.00,,---,0.00,VWS V14.01,2013-05-09 06:17:00,
2013-05-09 00:22:00,30.1,28.6,30.11,North,355,0.0,0.0,94,0.00,,---,0.00,VWS V14.01,2013-05-09 06:22:00,
2013-05-09 00:27:00,30.1,28.6,30.11,North,355,0.0,0.0,94,0.00,,---,0.00,VWS V14.01,2013-05-09 06:27:00,
2013-05-09 00:32:00,30.1,28.6,30.11,North,355,0.0,0.0,94,0.00,,---,0.00,VWS V14.01,2013-05-09 06:32:00,
2013-05-09 00:37:00,30.1,28.6,30.11,North,355,0.0,0.0,94,0.00,,---,0.00,VWS V14.01,2013-05-09 06:37:00,
2013-05-09 00:42:00,30.1,28.6,30.11,North,355,0.0,0.0,94,0.00,,---,0.00,VWS V14.01,2013-05-09 06:42:00,
2013-05-09 00:47:00,30.1,28.6,30.11,North,355,0.0,0.0,94,0.00,,---,0.00,VWS V14.01,2013-05-09 06:47:00,
2013-05-09 00:52:00,30.1,28.6,30.11,North,355,0.0,0.0,94,0.00,,---,0.00,VWS V14.01,2013-05-09 06:52:00,
2013-05-09 00:57:00,30.1,28.6,30.11,North,355,0.0,0.0,94,0.00,,---,0.00,VWS V14.01,2013-05-09 06:57:00,
2013-05-09 01:02:00,30.0,28.5,30.12,North,355,0.0,0.0,94,0.00,,---,0.00,VWS V14.01,2013-05-09 07:02:00,
2013-05-09 01:07:00,30.1,28.6,30.11,North,355,0.0,0.0,94,0.00,,---,0.00,VWS V14.01,2013-05-09 07:07:00,
2013-05-09 01:12:00,30.0,28.5,30.11,North,355,0.0,0.0,94,0.00,,---,0.00,VWS V14.01,2013-05-09 07:12:00,
2013-05-09 01:17:00,30.0,28.5,30.11,North,355,0.0,0.0,94,0.00,,---,0.00,VWS V14.01,2013-05-09 07:17:00,
2013-05-09 01:22:00,30.0,28.5,30.11,North,355,0.0,0.0,94,0.00,,---,0.00,VWS V14.01,2013-05-09 07:22:00,
2013-05-09 01:27:00,30.0,28.7,30.11,North,355,0.0,0.0,95,0.00,,---,0.00,VWS V14.01,2013-05-09 07:27:00,
2013-05-09 01:32:00,30.1,28.8,30.11,North,355,0.0,0.0,95,0.00,,---,0.00,VWS V14.01,2013-05-09 07:32:00,
2013-05-09 01:37:00,30.1,28.8,30.11,North,355,0.0,0.0,95,0.00,,---,0.00,VWS V14.01,2013-05-09 07:37:00,
2013-05-09 01:42:00,30.1,28.8,30.11,North,355,0.0,0.0,95,0.00,,---,0.00,VWS V14.01,2013-05-09 07:42:00,
2013-05-09 01:47:00,30.1,28.8,30.10,North,355,0.0,0.0,95,0.00,,---,0.00,VWS V14.01,2013-05-09 07:47:00,
2013-05-09 01:52:00,30.0,28.7,30.11,North,355,0.0,0.0,95,0.00,,---,0.00,VWS V14.01,2013-05-09 07:52:00,
2013-05-09 01:57:00,30.0,28.7,30.11,North,355,0.0,0.0,95,0.00,,---,0.00,VWS V14.01,2013-05-09 07:57:00,
2013-05-09 02:02:00,30.0,28.7,30.10,North,355,0.0,0.0,95,0.00,,---,0.00,VWS V14.01,2013-05-09 08:02:00,
2013-05-09 02:07:00,30.0,28.7,30.10,North,355,0.0,0.0,95,0.00,,---,0.00,VWS V14.01,2013-05-09 08:07:00,
2013-05-09 02:13:00,30.0,28.7,30.10,North,355,0.0,0.0,95,0.00,,---,0.00,VWS V14.01,2013-05-09 08:13:00,
2013-05-09 02:18:00,30.0,28.7,30.10,North,355,0.0,0.0,95,0.00,,---,0.00,VWS V14.01,2013-05-09 08:18:00,
2013-05-09 02:23:00,30.0,28.7,30.10,North,355,0.0,0.0,95,0.00,,---,0.00,VWS V14.01,2013-05-09 08:23:00,
2013-05-09 02:28:00,30.0,28.7,30.10,North,355,0.0,0.0,95,0.00,,---,0.00,VWS V14.01,2013-05-09 08:28:00,
2013-05-09 02:33:00,30.0,28.7,30.10,North,355,0.0,0.0,95,0.00,,---,0.00,VWS V14.01,2013-05-09 08:33:00,
2013-05-09 02:38:00,29.9,28.6,30.10,North,355,0.0,0.0,95,0.00,,---,0.00,VWS V14.01,2013-05-09 08:38:00,
2013-05-09 02:43:00,29.9,28.6,30.10,North,355,0.0,0.0,95,0.00,,---,0.00,VWS V14.01,2013-05-09 08:43:00,
2013-05-09 02:48:00,29.9,28.6,30.10,North,355,0.0,0.0,95,0.00,,---,0.00,VWS V14.01,2013-05-09 08:48:00,
2013-05-09 02:53:00,29.9,28.6,30.09,North,355,0.0,0.0,95,0.00,,---,0.00,VWS V14.01,2013-05-09 08:53:00,
2013-05-09 02:58:00,29.9,28.6,30.10,North,355,0.0,0.0,95,0.00,,---,0.00,VWS V14.01,2013-05-09 08:58:00,
2013-05-09 03:03:00,29.8,28.5,30.10,North,355,0.0,0.0,95,0.00,,---,0.00,VWS V14.01,2013-05-09 09:03:00,
2013-05-09 03:08:00,29.8,28.5,30.10,North,355,0.0,0.0,95,0.00,,---,0.00,VWS V14.01,2013-05-09 09:08:00,
2013-05-09 03:13:00,29.8,28.5,30.10,North,355,0.0,0.0,95,0.00,,---,0.00,VWS V14.01,2013-05-09 09:13:00,
2013-05-09 03:18:00,29.7,28.5,30.10,North,355,0.0,0.0,95,0.00,,---,0.00,VWS V14.01,2013-05-09 09:18:00,
2013-05-09 03:23:00,29.7,28.5,30.10,North,355,0.0,0.0,95,0.00,,---,0.00,VWS V14.01,2013-05-09 09:23:00,
2013-05-09 03:28:00,29.7,28.5,30.09,North,355,0.0,0.0,95,0.00,,---,0.00,VWS V14.01,2013-05-09 09:28:00,
2013-05-09 03:33:00,29.6,28.4,30.10,North,355,0.0,0.0,95,0.00,,---,0.00,VWS V14.01,2013-05-09 09:33:00,
2013-05-09 03:38:00,29.6,28.4,30.10,North,355,0.0,0.0,95,0.00,,---,0.00,VWS V14.01,2013-05-09 09:38:00,
2013-05-09 03:43:00,29.6,28.4,30.10,North,355,0.0,0.0,95,0.00,,---,0.00,VWS V14.01,2013-05-09 09:43:00,
2013-05-09 03:48:00,29.6,28.4,30.10,North,355,0.0,0.0,95,0.00,,---,0.00,VWS V14.01,2013-05-09 09:48:00,
2013-05-09 03:53:00,29.5,28.2,30.10,North,355,0.0,0.0,95,0.00,,---,0.00,VWS V14.01,2013-05-09 09:53:00,
2013-05-09 03:58:00,29.5,28.2,30.10,North,355,0.0,0.0,95,0.00,,---,0.00,VWS V14.01,2013-05-09 09:58:00,
2013-05-09 04:03:00,29.6,28.4,30.10,North,355,0.0,0.0,95,0.00,,---,0.00,VWS V14.01,2013-05-09 10:03:00,
2013-05-09 04:08:00,29.6,28.4,30.10,North,355,0.0,0.0,95,0.00,,---,0.00,VWS V14.01,2013-05-09 10:08:00,
2013-05-09 04:13:00,29.6,28.4,30.10,North,355,0.0,0.0,95,0.00,,---,0.00,VWS V14.01,2013-05-09 10:13:00,
2013-05-09 04:18:00,29.6,28.4,30.10,North,355,0.0,0.0,95,0.00,,---,0.00,VWS V14.01,2013-05-09 10:18:00,
2013-05-09 04:23:00,29.5,28.2,30.10,North,355,0.0,0.0,95,0.00,,---,0.00,VWS V14.01,2013-05-09 10:23:00,
2013-05-09 04:28:00,29.5,28.2,30.10,North,355,0.0,0.0,95,0.00,,---,0.00,VWS V14.01,2013-05-09 10:28:00,
2013-05-09 04:33:00,29.6,28.4,30.10,North,355,0.0,0.0,95,0.00,,---,0.00,VWS V14.01,2013-05-09 10:33:00,
2013-05-09 04:38:00,29.6,28.4,30.10,North,355,0.0,0.0,95,0.00,,---,0.00,VWS V14.01,2013-05-09 10:38:00,
2013-05-09 04:43:00,29.5,28.2,30.10,North,355,0.0,0.0,95,0.00,,---,0.00,VWS V14.01,2013-05-09 10:43:00,
2013-05-09 04:48:00,29.6,28.4,30.10,North,355,0.0,0.0,95,0.00,,---,0.00,VWS V14.01,2013-05-09 10:48:00,
2013-05-09 04:53:00,29.6,28.4,30.10,North,355,0.0,0.0,95,0.00,,---,0.00,VWS V14.01,2013-05-09 10:53:00,
2013-05-09 04:58:00,29.6,28.4,30.10,North,355,0.0,0.0,95,0.00,,---,0.00,VWS V14.01,2013-05-09 10:58:00,
2013-05-09 05:03:00,29.6,28.4,30.10,North,355,0.0,0.0,95,0.00,,---,0.00,VWS V14.01,2013-05-09 11:03:00,
2013-05-09 05:08:00,29.6,28.4,30.10,North,355,0.0,0.0,95,0.00,,---,0.00,VWS V14.01,2013-05-09 11:08:00,
2013-05-09 05:13:00,29.6,28.4,30.10,North,355,0.0,0.0,95,0.00,,---,0.00,VWS V14.01,2013-05-09 11:13:00,
2013-05-09 05:18:00,29.5,28.2,30.10,North,355,0.0,0.0,95,0.00,,---,0.00,VWS V14.01,2013-05-09 11:18:00,
2013-05-09 05:23:00,29.4,28.1,30.10,North,355,0.0,0.0,95,0.00,,---,0.00,VWS V14.01,2013-05-09 11:23:00,
2013-05-09 05:28:00,29.3,28.0,30.09,North,355,0.0,0.0,95,0.00,,---,0.00,VWS V14.01,2013-05-09 11:28:00,
2013-05-09 05:33:00,29.2,28.0,30.10,North,355,0.0,0.0,95,0.00,,---,0.00,VWS V14.01,2013-05-09 11:33:00,
2013-05-09 05:38:00,29.1,27.9,30.10,North,355,0.0,0.0,95,0.00,,---,0.00,VWS V14.01,2013-05-09 11:38:00,
2013-05-09 05:43:00,28.9,27.6,30.10,North,355,0.0,0.0,95,0.00,,---,0.00,VWS V14.01,2013-05-09 11:43:00,
2013-05-09 05:48:00,28.8,27.5,30.10,North,355,0.0,0.0,95,0.00,,---,0.00,VWS V14.01,2013-05-09 11:48:00,
2013-05-09 05:53:00,28.8,27.5,30.10,North,355,0.0,0.0,95,0.00,,---,0.00,VWS V14.01,2013-05-09 11:53:00,
2013-05-09 05:58:00,28.5,27.2,30.11,North,355,0.0,0.0,95,0.00,,---,0.00,VWS V14.01,2013-05-09 11:58:00,
2013-05-09 06:03:00,28.2,27.0,30.11,North,355,0.0,0.0,95,0.00,,---,0.00,VWS V14.01,2013-05-09 12:03:00,
2013-05-09 06:08:00,28.2,27.0,30.10,North,355,0.0,0.0,95,0.00,,---,0.00,VWS V14.01,2013-05-09 12:08:00,
2013-05-09 06:13:00,28.2,27.0,30.10,North,355,0.0,0.0,95,0.00,,---,0.00,VWS V14.01,2013-05-09 12:13:00,
2013-05-09 06:18:00,28.3,27.0,30.11,North,355,0.0,0.0,95,0.00,,---,0.00,VWS V14.01,2013-05-09 12:18:00,
2013-05-09 06:23:00,28.6,27.4,30.11,North,355,0.0,0.0,95,0.00,,---,0.00,VWS V14.01,2013-05-09 12:23:00,
2013-05-09 06:28:00,28.7,27.7,30.12,North,355,0.0,0.0,96,0.00,,---,0.00,VWS V14.01,2013-05-09 12:28:00,
2013-05-09 06:33:00,28.9,27.6,30.12,North,355,0.0,0.0,95,0.00,,---,0.00,VWS V14.01,2013-05-09 12:33:00,
2013-05-09 06:38:00,29.0,27.8,30.12,North,355,0.0,0.0,95,0.00,,---,0.00,VWS V14.01,2013-05-09 12:38:00,
2013-05-09 06:43:00,29.1,28.1,30.12,North,355,0.0,0.0,96,0.00,,---,0.00,VWS V14.01,2013-05-09 12:43:00,
2013-05-09 06:48:00,29.1,28.1,30.12,North,355,0.0,0.0,96,0.00,,---,0.00,VWS V14.01,2013-05-09 12:48:00,
2013-05-09 06:54:00,29.2,28.2,30.12,North,355,0.0,0.0,96,0.00,,---,0.00,VWS V14.01,2013-05-09 12:54:00,
2013-05-09 06:59:00,29.2,28.2,30.12,North,355,0.0,0.0,96,0.00,,---,0.00,VWS V14.01,2013-05-09 12:59:00,
2013-05-09 07:04:00,29.4,28.4,30.12,North,355,0.0,0.0,96,0.00,,---,0.00,VWS V14.01,2013-05-09 13:04:00,
2013-05-09 07:09:00,29.5,28.2,30.12,North,355,0.0,0.0,95,0.00,,---,0.00,VWS V14.01,2013-05-09 13:09:00,
2013-05-09 07:14:00,29.7,28.7,30.12,North,355,0.0,0.0,96,0.00,,---,0.00,VWS V14.01,2013-05-09 13:14:00,
2013-05-09 07:19:00,29.8,28.8,30.12,North,355,0.0,0.0,96,0.00,,---,0.00,VWS V14.01,2013-05-09 13:19:00,
2013-05-09 07:24:00,30.0,29.0,30.12,North,355,0.0,0.0,96,0.00,,---,0.00,VWS V14.01,2013-05-09 13:24:00,
2013-05-09 07:29:00,30.3,29.3,30.12,North,355,0.0,0.0,96,0.00,,---,0.00,VWS V14.01,2013-05-09 13:29:00,
2013-05-09 07:34:00,30.4,29.4,30.13,North,355,0.0,0.0,96,0.00,,---,0.00,VWS V14.01,2013-05-09 13:34:00,
2013-05-09 07:39:00,30.5,29.2,30.13,North,355,0.0,0.0,95,0.00,,---,0.00,VWS V14.01,2013-05-09 13:39:00,
2013-05-09 07:44:00,30.7,29.7,30.13,North,355,0.0,0.0,96,0.00,,---,0.00,VWS V14.01,2013-05-09 13:44:00,
2013-05-09 07:49:00,30.9,29.9,30.13,North,355,0.0,0.0,96,0.00,,---,0.00,VWS V14.01,2013-05-09 13:49:00,
2013-05-09 07:54:00,31.0,29.7,30.13,North,355,2.0,2.0,95,0.00,,---,0.00,VWS V14.01,2013-05-09 13:54:00,
2013-05-09 07:59:00,31.2,29.9,30.13,North,355,1.0,2.0,95,0.00,,---,0.00,VWS V14.01,2013-05-09 13:59:00,
2013-05-09 08:04:00,31.5,30.2,30.13,North,355,0.0,0.0,95,0.00,,---,0.00,VWS V14.01,2013-05-09 14:04:00,
2013-05-09 08:09:00,31.9,30.6,30.13,North,355,0.0,0.0,95,0.00,,---,0.00,VWS V14.01,2013-05-09 14:09:00,
2013-05-09 08:14:00,32.3,31.0,30.13,North,355,0.0,0.0,95,0.00,,---,0.00,VWS V14.01,2013-05-09 14:14:00,
2013-05-09 08:19:00,32.6,31.3,30.13,North,355,0.0,0.0,95,0.00,,---,0.00,VWS V14.01,2013-05-09 14:19:00,
2013-05-09 08:24:00,33.3,32.3,30.14,North,355,0.0,0.0,96,0.00,,---,0.00,VWS V14.01,2013-05-09 14:24:00,
2013-05-09 08:29:00,34.4,33.1,30.14,North,355,0.0,0.0,95,0.00,,---,0.00,VWS V14.01,2013-05-09 14:29:00,
2013-05-09 08:34:00,35.3,33.2,30.13,North,355,0.0,0.0,92,0.00,,---,0.00,VWS V14.01,2013-05-09 14:34:00,
2013-05-09 08:39:00,34.5,31.6,30.14,North,355,0.0,0.0,89,0.00,,---,0.00,VWS V14.01,2013-05-09 14:39:00,
2013-05-09 08:44:00,33.7,30.8,30.14,North,355,0.0,0.0,89,0.00,,---,0.00,VWS V14.01,2013-05-09 14:44:00,
2013-05-09 08:49:00,33.5,30.6,30.14,North,355,0.0,0.0,89,0.00,,---,0.00,VWS V14.01,2013-05-09 14:49:00,
2013-05-09 08:54:00,33.8,30.9,30.14,North,355,0.0,0.0,89,0.00,,---,0.00,VWS V14.01,2013-05-09 14:54:00,
2013-05-09 08:59:00,34.4,31.2,30.14,North,355,0.0,0.0,88,0.00,,---,0.00,VWS V14.01,2013-05-09 14:59:00,
2013-05-09 09:04:00,34.2,30.7,30.14,North,355,0.0,0.0,87,0.00,,---,0.00,VWS V14.01,2013-05-09 15:04:00,
2013-05-09 09:09:00,34.1,30.6,30.15,North,355,0.0,0.0,87,0.00,,---,0.00,VWS V14.01,2013-05-09 15:09:00,
2013-05-09 09:14:00,33.7,30.8,30.15,North,355,0.0,0.0,89,0.00,,---,0.00,VWS V14.01,2013-05-09 15:14:00,
2013-05-09 09:19:00,33.7,30.5,30.15,North,355,0.0,0.0,88,0.00,,---,0.00,VWS V14.01,2013-05-09 15:19:00,
2013-05-09 09:24:00,34.3,31.1,30.15,North,355,0.0,0.0,88,0.00,,---,0.00,VWS V14.01,2013-05-09 15:24:00,
2013-05-09 09:29:00,35.1,31.6,30.15,North,355,0.0,0.0,87,0.00,,---,0.00,VWS V14.01,2013-05-09 15:29:00,
2013-05-09 09:34:00,35.5,31.5,30.15,North,355,0.0,0.0,85,0.00,,---,0.00,VWS V14.01,2013-05-09 15:34:00,
2013-05-09 09:39:00,35.2,31.1,30.15,North,355,0.0,0.0,85,0.00,,---,0.00,VWS V14.01,2013-05-09 15:39:00,
2013-05-09 09:44:00,34.8,31.0,30.15,North,355,0.0,0.0,86,0.00,,---,0.00,VWS V14.01,2013-05-09 15:44:00,
2013-05-09 09:49:00,35.1,31.6,30.15,North,355,0.0,0.0,87,0.01,,---,0.01,VWS V14.01,2013-05-09 15:49:00,
2013-05-09 09:54:00,35.3,31.2,30.15,North,355,0.0,0.0,85,0.02,,---,0.02,VWS V14.01,2013-05-09 15:54:00,
2013-05-09 09:59:00,35.5,31.1,30.15,North,355,0.0,1.0,84,0.02,,---,0.02,VWS V14.01,2013-05-09 15:59:00,
2013-05-09 10:04:00,35.4,31.1,30.15,North,355,0.0,2.0,84,0.03,,---,0.03,VWS V14.01,2013-05-09 16:04:00,
2013-05-09 10:09:00,35.6,31.2,30.15,North,355,0.0,0.0,84,0.04,,---,0.04,VWS V14.01,2013-05-09 16:09:00,
2013-05-09 10:14:00,35.8,31.5,30.15,North,355,0.0,0.0,84,0.04,,---,0.04,VWS V14.01,2013-05-09 16:14:00,
2013-05-09 10:19:00,36.1,30.8,30.16,North,355,0.0,0.0,81,0.05,,---,0.05,VWS V14.01,2013-05-09 16:19:00,
2013-05-09 10:24:00,36.4,31.4,30.16,North,355,0.0,0.0,82,0.06,,---,0.06,VWS V14.01,2013-05-09 16:24:00,
2013-05-09 10:29:00,36.1,31.1,30.16,North,355,0.0,0.0,82,0.06,,---,0.06,VWS V14.01,2013-05-09 16:29:00,
2013-05-09 10:34:00,36.1,30.5,30.16,North,355,1.0,1.0,80,0.07,,---,0.07,VWS V14.01,2013-05-09 16:34:00,
2013-05-09 10:39:00,36.1,31.5,30.16,North,355,0.0,0.0,83,0.07,,---,0.07,VWS V14.01,2013-05-09 16:39:00,
2013-05-09 10:45:00,35.6,31.0,30.16,North,355,0.0,0.0,83,0.08,,---,0.08,VWS V14.01,2013-05-09 16:45:00,
2013-05-09 10:50:00,35.7,31.4,30.16,North,355,0.0,0.0,84,0.07,,---,0.08,VWS V14.01,2013-05-09 16:50:00,
2013-05-09 10:55:00,36.4,31.7,30.16,North,355,0.0,0.0,83,0.07,,---,0.09,VWS V14.01,2013-05-09 16:55:00,
2013-05-09 11:00:00,36.6,31.6,30.16,North,355,0.0,0.0,82,0.08,,---,0.10,VWS V14.01,2013-05-09 17:00:00,
2013-05-09 11:05:00,36.7,31.4,30.17,North,355,0.0,0.0,81,0.07,,---,0.10,VWS V14.01,2013-05-09 17:05:00,
2013-05-09 11:10:00,37.3,31.7,30.17,North,355,0.0,0.0,80,0.07,,---,0.11,VWS V14.01,2013-05-09 17:10:00,
2013-05-09 11:15:00,37.1,31.5,30.17,North,355,0.0,0.0,80,0.08,,---,0.12,VWS V14.01,2013-05-09 17:15:00,
2013-05-09 11:20:00,37.3,31.4,30.17,North,355,0.0,2.0,79,0.07,,---,0.12,VWS V14.01,2013-05-09 17:20:00,
2013-05-09 11:25:00,36.8,31.5,30.17,North,355,0.0,0.0,81,0.07,,---,0.13,VWS V14.01,2013-05-09 17:25:00,
2013-05-09 11:30:00,36.5,31.8,30.16,North,355,0.0,0.0,83,0.07,,---,0.13,VWS V14.01,2013-05-09 17:30:00,
2013-05-09 11:35:00,37.1,32.4,30.16,North,355,0.0,0.0,83,0.07,,---,0.14,VWS V14.01,2013-05-09 17:35:00,
2013-05-09 11:40:00,36.9,31.9,30.17,North,355,0.0,0.0,82,0.07,,---,0.14,VWS V14.01,2013-05-09 17:40:00,
2013-05-09 11:45:00,36.7,31.7,30.16,North,355,0.0,0.0,82,0.07,,---,0.15,VWS V14.01,2013-05-09 17:45:00,
2013-05-09 11:50:00,36.9,31.3,30.16,North,355,1.0,1.0,80,0.07,,---,0.15,VWS V14.01,2013-05-09 17:50:00,
2013-05-09 11:55:00,37.4,31.8,30.17,North,355,1.0,2.0,80,0.07,,---,0.16,VWS V14.01,2013-05-09 17:55:00,
2013-05-09 12:00:00,37.5,31.9,30.16,North,355,4.0,4.0,80,0.06,,---,0.16,VWS V14.01,2013-05-09 18:00:00,
2013-05-09 12:05:00,38.0,32.4,30.17,North,355,0.0,0.0,80,0.07,,---,0.17,VWS V14.01,2013-05-09 18:05:00,
2013-05-09 12:10:00,38.1,32.5,30.17,North,355,3.0,3.0,80,0.06,,---,0.17,VWS V14.01,2013-05-09 18:10:00,
2013-05-09 12:15:00,38.2,32.3,30.17,North,355,0.0,0.0,79,0.05,,---,0.17,VWS V14.01,2013-05-09 18:15:00,
2013-05-09 12:20:00,37.9,32.6,30.17,North,355,0.0,0.0,81,0.06,,---,0.18,VWS V14.01,2013-05-09 18:20:00,
2013-05-09 12:25:00,37.6,32.3,30.17,North,355,1.0,3.0,81,0.06,,---,0.18,VWS V14.01,2013-05-09 18:25:00,
2013-05-09 12:30:00,37.4,32.4,30.17,North,355,0.0,0.0,82,0.05,,---,0.18,VWS V14.01,2013-05-09 18:30:00,
2013-05-09 12:35:00,36.7,32.0,30.17,North,355,0.0,0.0,83,0.04,,---,0.18,VWS V14.01,2013-05-09 18:35:00,
2013-05-09 12:40:00,36.4,32.3,30.17,North,355,0.0,0.0,85,0.04,,---,0.18,VWS V14.01,2013-05-09 18:40:00,
2013-05-09 12:45:00,36.2,32.4,30.17,North,355,0.0,0.0,86,0.04,,---,0.19,VWS V14.01,2013-05-09 18:45:00,
2013-05-09 12:50:00,36.8,33.3,30.17,North,355,0.0,1.0,87,0.04,,---,0.19,VWS V14.01,2013-05-09 18:50:00,
2013-05-09 12:55:00,37.6,33.2,30.17,North,355,0.0,0.0,84,0.03,,---,0.19,VWS V14.01,2013-05-09 18:55:00,
2013-05-09 13:00:00,37.3,32.9,30.17,North,355,3.0,4.0,84,0.04,,---,0.20,VWS V14.01,2013-05-09 19:00:00,
2013-05-09 13:05:00,37.4,33.0,30.17,North,355,3.0,3.0,84,0.03,,---,0.20,VWS V14.01,2013-05-09 19:05:00,
2013-05-09 13:10:00,37.6,33.2,30.17,North,355,4.0,4.0,84,0.03,,---,0.20,VWS V14.01,2013-05-09 19:10:00,
2013-05-09 13:15:00,37.9,33.2,30.16,North,355,5.0,5.0,83,0.04,,---,0.21,VWS V14.01,2013-05-09 19:15:00,
2013-05-09 13:20:00,38.2,33.2,30.16,North,355,2.0,3.0,82,0.03,,---,0.21,VWS V14.01,2013-05-09 19:20:00,
2013-05-09 13:25:00,38.6,33.3,30.17,North,355,5.0,5.0,81,0.04,,---,0.22,VWS V14.01,2013-05-09 19:25:00,
2013-05-09 13:30:00,38.9,32.6,30.17,North,355,5.0,6.0,78,0.04,,---,0.22,VWS V14.01,2013-05-09 19:30:00,
2013-05-09 13:35:00,39.2,32.9,30.16,North,355,3.0,4.0,78,0.04,,---,0.22,VWS V14.01,2013-05-09 19:35:00,
2013-05-09 13:40:00,39.3,33.0,30.17,North,355,5.0,6.0,78,0.04,,---,0.22,VWS V14.01,2013-05-09 19:40:00,
2013-05-09 13:45:00,39.8,32.9,30.16,North,355,4.0,5.0,76,0.04,,---,0.23,VWS V14.01,2013-05-09 19:45:00,
2013-05-09 13:50:00,40.4,32.8,30.17,North,355,2.0,5.0,74,0.04,,---,0.23,VWS V14.01,2013-05-09 19:50:00,
2013-05-09 13:55:00,40.6,33.3,30.16,North,355,4.0,7.0,75,0.04,,---,0.23,VWS V14.01,2013-05-09 19:55:00,
2013-05-09 14:00:00,41.2,32.9,30.16,North,355,4.0,4.0,72,0.04,,---,0.24,VWS V14.01,2013-05-09 20:00:00,
2013-05-09 14:05:00,41.4,31.6,30.16,North,355,0.0,0.0,68,0.04,,---,0.24,VWS V14.01,2013-05-09 20:05:00,
2013-05-09 14:10:00,42.1,32.3,30.16,North,355,1.0,2.0,68,0.04,,---,0.24,VWS V14.01,2013-05-09 20:10:00,
2013-05-09 14:15:00,42.3,32.1,30.16,North,355,1.0,1.0,67,0.03,,---,0.24,VWS V14.01,2013-05-09 20:15:00,
2013-05-09 14:20:00,42.0,32.2,30.16,North,355,7.0,7.0,68,0.03,,---,0.24,VWS V14.01,2013-05-09 20:20:00,
2013-05-09 14:25:00,41.4,31.6,30.16,North,355,5.0,5.0,68,0.02,,---,0.24,VWS V14.01,2013-05-09 20:25:00,
2013-05-09 14:30:00,41.1,32.1,30.16,North,355,5.0,5.0,70,0.03,,---,0.25,VWS V14.01,2013-05-09 20:30:00,
2013-05-09 14:35:00,41.2,31.5,30.16,North,355,2.0,3.0,68,0.03,,---,0.25,VWS V14.01,2013-05-09 20:35:00,
2013-05-09 14:40:00,41.4,31.6,30.16,North,355,4.0,4.0,68,0.03,,---,0.25,VWS V14.01,2013-05-09 20:40:00,
2013-05-09 14:46:00,41.7,31.2,30.16,North,355,3.0,3.0,66,0.02,,---,0.25,VWS V14.01,2013-05-09 20:46:00,
2013-05-09 14:51:00,42.0,30.7,30.16,North,355,4.0,4.0,64,0.02,,---,0.25,VWS V14.01,2013-05-09 20:51:00,
2013-05-09 14:56:00,42.3,30.6,30.16,North,355,3.0,3.0,63,0.02,,---,0.25,VWS V14.01,2013-05-09 20:56:00,
2013-05-09 15:01:00,42.4,30.7,30.16,North,355,4.0,4.0,63,0.01,,---,0.25,VWS V14.01,2013-05-09 21:01:00,
2013-05-09 15:06:00,42.3,31.4,30.16,North,355,2.0,3.0,65,0.01,,---,0.25,VWS V14.01,2013-05-09 21:06:00,
2013-05-09 15:11:00,42.5,31.2,30.16,North,355,3.0,3.0,64,0.01,,---,0.25,VWS V14.01,2013-05-09 21:11:00,
2013-05-09 15:16:00,42.4,31.1,30.15,North,355,0.0,1.0,64,0.01,,---,0.25,VWS V14.01,2013-05-09 21:16:00,
2013-05-09 15:21:00,42.5,32.0,30.15,North,355,0.0,0.0,66,0.01,,---,0.25,VWS V14.01,2013-05-09 21:21:00,
2013-05-09 15:26:00,42.6,30.1,30.15,North,355,0.0,0.0,61,0.01,,---,0.25,VWS V14.01,2013-05-09 21:26:00,
2013-05-09 15:31:00,43.0,29.7,30.15,North,355,2.0,2.0,59,0.00,,---,0.25,VWS V14.01,2013-05-09 21:31:00,
2013-05-09 15:36:00,43.0,30.1,30.14,North,355,0.0,0.0,60,0.00,,---,0.25,VWS V14.01,2013-05-09 21:36:00,
2013-05-09 15:41:00,43.2,30.7,30.14,North,355,0.0,0.0,61,0.00,,---,0.25,VWS V14.01,2013-05-09 21:41:00,
2013-05-09 15:46:00,43.5,28.9,30.14,North,355,0.0,0.0,56,0.00,,---,0.25,VWS V14.01,2013-05-09 21:46:00,
2013-05-09 15:51:00,43.8,29.1,30.14,North,355,1.0,2.0,56,0.00,,---,0.25,VWS V14.01,2013-05-09 21:51:00,
2013-05-09 15:56:00,43.2,31.9,30.14,North,355,0.0,0.0,64,0.00,,---,0.25,VWS V14.01,2013-05-09 21:56:00,
2013-05-09 16:01:00,43.8,30.0,30.13,North,355,0.0,0.0,58,0.00,,---,0.25,VWS V14.01,2013-05-09 22:01:00,
2013-05-09 16:06:00,44.0,28.4,30.13,North,355,0.0,0.0,54,0.00,,---,0.25,VWS V14.01,2013-05-09 22:06:00,
2013-05-09 16:11:00,44.2,30.0,30.13,North,355,0.0,1.0,57,0.00,,---,0.25,VWS V14.01,2013-05-09 22:11:00,
2013-05-09 16:16:00,44.4,29.3,30.13,North,355,0.0,0.0,55,0.00,,---,0.25,VWS V14.01,2013-05-09 22:16:00,
2013-05-09 16:21:00,44.4,30.6,30.13,North,355,1.0,2.0,58,0.00,,---,0.25,VWS V14.01,2013-05-09 22:21:00,
2013-05-09 16:26:00,44.9,30.2,30.13,North,355,0.0,0.0,56,0.00,,---,0.25,VWS V14.01,2013-05-09 22:26:00,
2013-05-09 16:31:00,45.1,30.8,30.13,North,355,0.0,0.0,57,0.00,,---,0.25,VWS V14.01,2013-05-09 22:31:00,
2013-05-09 16:36:00,45.7,30.5,30.13,North,355,2.0,2.0,55,0.00,,---,0.25,VWS V14.01,2013-05-09 22:36:00,
2013-05-09 16:41:00,46.1,28.0,30.13,North,355,0.0,0.0,49,0.00,,---,0.25,VWS V14.01,2013-05-09 22:41:00,
2013-05-09 16:46:00,46.2,28.6,30.12,North,355,1.0,1.0,50,0.00,,---,0.25,VWS V14.01,2013-05-09 22:46:00,
2013-05-09 16:51:00,46.3,28.2,30.12,North,355,4.0,4.0,49,0.00,,---,0.25,VWS V14.01,2013-05-09 22:51:00,
2013-05-09 16:56:00,46.4,29.8,30.12,ESE,121,8.0,10.0,52,0.00,,---,0.25,VWS V14.01,2013-05-09 22:56:00,
2013-05-09 17:01:00,46.1,29.0,30.12,ESE,115,8.0,9.0,51,0.00,,---,0.25,VWS V14.01,2013-05-09 23:01:00,
2013-05-09 17:06:00,46.4,28.8,30.12,East,80,10.0,11.0,50,0.00,,---,0.25,VWS V14.01,2013-05-09 23:06:00,
2013-05-09 17:11:00,46.3,29.2,30.12,ESE,123,8.0,8.0,51,0.00,,---,0.25,VWS V14.01,2013-05-09 23:11:00,
2013-05-09 17:16:00,46.4,28.8,30.12,SE,142,6.0,6.0,50,0.00,,---,0.25,VWS V14.01,2013-05-09 23:16:00,
2013-05-09 17:21:00,46.6,29.9,30.12,SE,130,6.0,8.0,52,0.00,,---,0.25,VWS V14.01,2013-05-09 23:21:00,
2013-05-09 17:26:00,46.7,30.0,30.12,SE,130,9.0,12.0,52,0.00,,---,0.25,VWS V14.01,2013-05-09 23:26:00,
2013-05-09 17:31:00,46.7,29.1,30.12,SSE,147,9.0,9.0,50,0.00,,---,0.25,VWS V14.01,2013-05-09 23:31:00,
2013-05-09 17:36:00,46.7,29.5,30.12,SE,144,6.0,6.0,51,0.00,,---,0.25,VWS V14.01,2013-05-09 23:36:00,
2013-05-09 17:41:00,46.6,29.9,30.12,ESE,109,3.0,7.0,52,0.00,,---,0.25,VWS V14.01,2013-05-09 23:41:00,
2013-05-09 17:46:00,46.8,29.2,30.12,SSE,152,8.0,9.0,50,0.00,,---,0.25,VWS V14.01,2013-05-09 23:46:00,
2013-05-09 17:51:00,46.9,30.2,30.12,SSE,150,1.0,4.0,52,0.00,,---,0.25,VWS V14.01,2013-05-09 23:51:00,
2013-05-09 17:56:00,46.8,29.6,30.12,SE,146,4.0,8.0,51,0.00,,---,0.25,VWS V14.01,2013-05-09 23:56:00,
2013-05-09 18:01:00,46.7,29.5,30.12,ESE,118,9.0,9.0,51,0.00,,---,0.25,VWS V14.01,2013-05-10 00:01:00,
2013-05-09 18:06:00,46.3,25.0,30.12,ESE,115,4.0,5.0,43,0.00,,---,0.25,VWS V14.01,2013-05-10 00:06:00,
2013-05-09 18:11:00,46.2,25.5,30.12,SE,130,4.0,5.0,44,0.00,,---,0.25,VWS V14.01,2013-05-10 00:11:00,
2013-05-09 18:16:00,46.2,26.0,30.12,ESE,117,10.0,13.0,45,0.00,,---,0.25,VWS V14.01,2013-05-10 00:16:00,
2013-05-09 18:21:00,46.1,26.0,30.12,SE,138,2.0,4.0,45,0.00,,---,0.25,VWS V14.01,2013-05-10 00:21:00,
2013-05-09 18:26:00,46.1,26.5,30.12,ESE,123,7.0,10.0,46,0.00,,---,0.25,VWS V14.01,2013-05-10 00:26:00,
2013-05-09 18:31:00,46.0,24.8,30.13,SE,134,8.0,11.0,43,0.00,,---,0.25,VWS V14.01,2013-05-10 00:31:00,
2013-05-09 18:37:00,46.1,24.9,30.13,SE,136,5.0,7.0,43,0.00,,---,0.25,VWS V14.01,2013-05-10 00:37:00,
2013-05-09 18:42:00,46.0,25.3,30.13,East,98,6.0,10.0,44,0.00,,---,0.25,VWS V14.01,2013-05-10 00:42:00,
2013-05-09 18:47:00,46.0,24.8,30.13,ESE,120,5.0,5.0,43,0.00,,---,0.25,VWS V14.01,2013-05-10 00:47:00,
2013-05-09 18:52:00,45.9,24.7,30.13,ESE,121,8.0,10.0,43,0.00,,---,0.25,VWS V14.01,2013-05-10 00:52:00,
2013-05-09 18:57:00,45.6,25.0,30.13,SE,126,6.0,8.0,44,0.00,,---,0.25,VWS V14.01,2013-05-10 00:57:00,
2013-05-09 19:02:00,45.6,25.5,30.13,ESE,113,9.0,9.0,45,0.00,,---,0.25,VWS V14.01,2013-05-10 01:02:00,
2013-05-09 19:07:00,45.4,24.8,30.13,ESE,105,4.0,8.0,44,0.00,,---,0.25,VWS V14.01,2013-05-10 01:07:00,
2013-05-09 19:12:00,45.3,25.2,30.13,ESE,109,8.0,8.0,45,0.00,,---,0.25,VWS V14.01,2013-05-10 01:12:00,
2013-05-09 19:17:00,45.1,26.1,30.13,East,101,8.0,8.0,47,0.00,,---,0.25,VWS V14.01,2013-05-10 01:17:00,
2013-05-09 19:22:00,45.0,25.5,30.13,ESE,115,8.0,9.0,46,0.00,,---,0.25,VWS V14.01,2013-05-10 01:22:00,
2013-05-09 19:27:00,44.8,25.3,30.13,ESE,109,3.0,5.0,46,0.00,,---,0.25,VWS V14.01,2013-05-10 01:27:00,
2013-05-09 19:32:00,44.5,25.5,30.13,ESE,110,3.0,6.0,47,0.00,,---,0.25,VWS V14.01,2013-05-10 01:32:00,
2013-05-09 19:37:00,44.2,27.2,30.13,ESE,104,2.0,3.0,51,0.00,,---,0.25,VWS V14.01,2013-05-10 01:37:00,
2013-05-09 19:42:00,43.8,29.1,30.13,ESE,116,3.0,3.0,56,0.00,,---,0.25,VWS V14.01,2013-05-10 01:42:00,
2013-05-09 19:47:00,42.6,28.5,30.14,SW,221,4.0,5.0,57,0.00,,---,0.25,VWS V14.01,2013-05-10 01:47:00,
2013-05-09 19:52:00,41.6,27.9,30.14,SW,220,1.0,1.0,58,0.00,,---,0.25,VWS V14.01,2013-05-10 01:52:00,
2013-05-09 19:57:00,40.9,28.5,30.14,SW,215,6.0,8.0,61,0.00,,---,0.25,VWS V14.01,2013-05-10 01:57:00,
2013-05-09 20:02:00,40.4,27.6,30.14,SSW,205,8.0,8.0,60,0.00,,---,0.25,VWS V14.01,2013-05-10 02:02:00,
2013-05-09 20:07:00,40.0,28.0,30.14,South,188,8.0,8.0,62,0.00,,---,0.25,VWS V14.01,2013-05-10 02:07:00,
2013-05-09 20:12:00,39.8,28.2,30.14,South,188,2.0,3.0,63,0.00,,---,0.25,VWS V14.01,2013-05-10 02:12:00,
2013-05-09 20:17:00,39.5,28.4,30.14,South,174,6.0,6.0,64,0.00,,---,0.25,VWS V14.01,2013-05-10 02:17:00,
2013-05-09 20:22:00,39.3,28.2,30.14,South,174,3.0,4.0,64,0.00,,---,0.25,VWS V14.01,2013-05-10 02:22:00,
2013-05-09 20:27:00,39.2,28.1,30.15,South,174,0.0,0.0,64,0.00,,---,0.25,VWS V14.01,2013-05-10 02:27:00,
2013-05-09 20:32:00,39.1,28.3,30.15,South,174,3.0,3.0,65,0.00,,---,0.25,VWS V14.01,2013-05-10 02:32:00,
2013-05-09 20:37:00,38.8,28.1,30.15,South,174,0.0,0.0,65,0.00,,---,0.25,VWS V14.01,2013-05-10 02:37:00,
2013-05-09 20:42:00,38.7,27.6,30.15,South,174,2.0,3.0,64,0.00,,---,0.25,VWS V14.01,2013-05-10 02:42:00,
2013-05-09 20:47:00,38.3,28.7,30.15,South,174,8.0,8.0,68,0.00,,---,0.25,VWS V14.01,2013-05-10 02:47:00,
2013-05-09 20:52:00,37.1,29.3,30.16,North,350,10.0,10.0,73,0.00,,---,0.25,VWS V14.01,2013-05-10 02:52:00,
2013-05-09 20:57:00,36.2,29.0,30.16,NNW,343,4.0,4.0,75,0.00,,---,0.25,VWS V14.01,2013-05-10 02:57:00,
2013-05-09 21:02:00,36.0,28.9,30.17,North,5,3.0,5.0,75,0.00,,---,0.25,VWS V14.01,2013-05-10 03:02:00,
2013-05-09 21:07:00,35.6,29.1,30.17,NW,309,2.0,4.0,77,0.00,,---,0.25,VWS V14.01,2013-05-10 03:07:00,
2013-05-09 21:12:00,35.5,28.7,30.17,NW,309,4.0,4.0,76,0.00,,---,0.25,VWS V14.01,2013-05-10 03:12:00,
2013-05-09 21:17:00,35.3,28.8,30.17,North,350,8.0,8.0,77,0.00,,---,0.25,VWS V14.01,2013-05-10 03:17:00,
2013-05-09 21:22:00,34.9,29.1,30.17,NNW,347,8.0,9.0,79,0.00,,---,0.25,VWS V14.01,2013-05-10 03:22:00,
2013-05-09 21:27:00,34.4,28.9,30.17,NNW,345,8.0,8.0,80,0.00,,---,0.25,VWS V14.01,2013-05-10 03:27:00,
2013-05-09 21:33:00,34.1,28.9,30.18,NNW,345,3.0,4.0,81,0.00,,---,0.25,VWS V14.01,2013-05-10 03:33:00,
2013-05-09 21:38:00,34.1,28.9,30.18,NNW,345,3.0,4.0,81,0.00,,---,0.25,VWS V14.01,2013-05-10 03:38:00,
2013-05-09 21:43:00,34.2,28.7,30.18,NNW,345,5.0,7.0,80,0.00,,---,0.25,VWS V14.01,2013-05-10 03:43:00,
2013-05-09 21:48:00,34.1,28.6,30.19,NNW,345,6.0,8.0,80,0.00,,---,0.25,VWS V14.01,2013-05-10 03:48:00,
2013-05-09 21:53:00,33.6,28.4,30.19,NNW,342,8.0,9.0,81,0.00,,---,0.25,VWS V14.01,2013-05-10 03:53:00,
2013-05-09 21:58:00,33.0,28.1,30.20,NNW,341,7.0,8.0,82,0.00,,---,0.25,VWS V14.01,2013-05-10 03:58:00,
2013-05-09 22:01:00,32.8,27.9,30.20,NNW,341,2.0,6.0,82,0.00,,---,0.25,VWS V14.01,2013-05-10 04:01:00,
2013-05-09 22:06:00,32.6,28.0,30.20,NNW,341,3.0,3.0,83,0.00,,---,0.25,VWS V14.01,2013-05-10 04:06:00,
2013-05-09 22:11:00,32.5,27.9,30.20,NNW,341,0.0,0.0,83,0.00,,---,0.25,VWS V14.01,2013-05-10 04:11:00,
2013-05-09 22:16:00,32.6,27.7,30.20,NNW,341,4.0,4.0,82,0.00,,---,0.25,VWS V14.01,2013-05-10 04:16:00,
2013-05-09 22:21:00,32.8,27.9,30.20,NNW,341,5.0,6.0,82,0.00,,---,0.25,VWS V14.01,2013-05-10 04:21:00,
2013-05-09 22:26:00,32.7,27.8,30.20,NNW,341,6.0,8.0,82,0.00,,---,0.25,VWS V14.01,2013-05-10 04:26:00,
2013-05-09 22:31:00,32.7,28.1,30.20,NNW,341,6.0,8.0,83,0.00,,---,0.25,VWS V14.01,2013-05-10 04:31:00,
2013-05-09 22:36:00,32.4,27.8,30.21,NNW,341,5.0,5.0,83,0.00,,---,0.25,VWS V14.01,2013-05-10 04:36:00,
2013-05-09 22:41:00,32.3,28.0,30.21,NNW,341,2.0,2.0,84,0.00,,---,0.25,VWS V14.01,2013-05-10 04:41:00,
2013-05-09 22:46:00,32.5,28.2,30.22,NNW,341,0.0,0.0,84,0.00,,---,0.25,VWS V14.01,2013-05-10 04:46:00,
2013-05-09 22:51:00,32.5,28.2,30.22,NNW,341,0.0,0.0,84,0.00,,---,0.25,VWS V14.01,2013-05-10 04:51:00,
2013-05-09 22:56:00,32.6,28.0,30.22,NNW,341,6.0,6.0,83,0.00,,---,0.25,VWS V14.01,2013-05-10 04:56:00,
2013-05-09 23:01:00,32.6,28.0,30.22,NNW,341,4.0,4.0,83,0.00,,---,0.25,VWS V14.01,2013-05-10 05:01:00,
2013-05-09 23:06:00,32.2,27.3,30.22,NNW,341,6.0,8.0,82,0.00,,---,0.25,VWS V14.01,2013-05-10 05:06:00,
2013-05-09 23:11:00,31.8,27.5,30.22,NNW,341,0.0,0.0,84,0.00,,---,0.25,VWS V14.01,2013-05-10 05:11:00,
2013-05-09 23:16:00,31.7,27.7,30.22,NNW,341,4.0,4.0,85,0.00,,---,0.25,VWS V14.01,2013-05-10 05:16:00,
2013-05-09 23:21:00,31.4,27.1,30.22,NNW,341,5.0,6.0,84,0.00,,---,0.25,VWS V14.01,2013-05-10 05:21:00,
2013-05-09 23:26:00,31.2,26.9,30.22,NNW,341,4.0,4.0,84,0.00,,---,0.25,VWS V14.01,2013-05-10 05:26:00,
2013-05-09 23:32:00,31.2,27.5,30.22,NNW,341,0.0,0.0,86,0.00,,---,0.25,VWS V14.01,2013-05-10 05:32:00,
2013-05-09 23:37:00,31.2,27.5,30.22,NNW,341,0.0,0.0,86,0.00,,---,0.25,VWS V14.01,2013-05-10 05:37:00,
2013-05-09 23:42:00,31.1,27.4,30.22,NNW,341,0.0,0.0,86,0.00,,---,0.25,VWS V14.01,2013-05-10 05:42:00,
2013-05-09 23:47:00,31.0,27.3,30.22,NNW,341,0.0,0.0,86,0.00,,---,0.25,VWS V14.01,2013-05-10 05:47:00,
2013-05-09 23:52:00,30.9,27.2,30.22,NNW,341,2.0,3.0,86,0.00,,---,0.25,VWS V14.01,2013-05-10 05:52:00,
2013-05-09 23:57:00,30.6,27.2,30.22,NNW,341,0.0,0.0,87,0.00,,---,0.25,VWS V14.01,2013-05-10 05:57:00,